createdAt,value
2018-12-26T00:00:52.568Z,7.21
2018-12-26T00:01:53.036Z,7.18
2018-12-26T00:02:53.501Z,7.17
2018-12-26T00:03:53.961Z,7.23
2018-12-26T00:04:54.424Z,7.18
2018-12-26T00:05:54.890Z,7.16
2018-12-26T00:06:55.359Z,7.23
2018-12-26T00:07:55.817Z,7.19
2018-12-26T00:08:56.280Z,7.22
2018-12-26T00:09:56.745Z,7.21
2018-12-26T00:10:57.209Z,7.17
2018-12-26T00:11:57.671Z,7.19
2018-12-26T00:12:58.139Z,7.18
2018-12-26T00:13:58.601Z,7.15
2018-12-26T00:14:59.066Z,7.16
2018-12-26T00:15:59.530Z,7.20
2018-12-26T00:16:59.994Z,7.18
2018-12-26T00:18:00.459Z,7.16
2018-12-26T00:19:00.923Z,7.15
2018-12-26T00:20:01.446Z,7.15
2018-12-26T00:21:01.853Z,7.19
2018-12-26T00:22:02.364Z,7.19
2018-12-26T00:23:02.778Z,7.17
2018-12-26T00:24:03.299Z,7.14
2018-12-26T00:25:03.718Z,7.14
2018-12-26T00:26:04.172Z,7.20
2018-12-26T00:27:04.659Z,7.21
2018-12-26T00:28:05.100Z,7.20
2018-12-26T00:29:05.561Z,7.16
2018-12-26T00:30:06.039Z,7.17
2018-12-26T00:31:06.489Z,7.16
2018-12-26T00:32:06.955Z,7.18
2018-12-26T00:33:07.426Z,7.17
2018-12-26T00:34:07.883Z,7.14
2018-12-26T00:35:08.347Z,7.17
2018-12-26T00:36:08.813Z,7.24
2018-12-26T00:37:09.276Z,7.22
2018-12-26T00:38:09.743Z,7.18
2018-12-26T00:39:10.203Z,7.18
2018-12-26T00:40:10.669Z,7.19
2018-12-26T00:41:11.133Z,7.18
2018-12-26T00:42:11.594Z,7.18
2018-12-26T00:43:12.060Z,7.19
2018-12-26T00:44:12.521Z,7.21
2018-12-26T00:45:12.988Z,7.19
2018-12-26T00:46:13.451Z,7.19
2018-12-26T00:47:13.915Z,7.18
2018-12-26T00:48:14.377Z,7.18
2018-12-26T00:49:14.843Z,7.21
2018-12-26T00:50:15.307Z,7.17
2018-12-26T00:51:15.772Z,7.21
2018-12-26T00:52:16.235Z,7.18
2018-12-26T00:53:16.700Z,7.20
2018-12-26T00:54:17.164Z,7.19
2018-12-26T00:55:17.630Z,7.21
2018-12-26T00:56:18.091Z,7.19
2018-12-26T00:57:18.555Z,7.20
2018-12-26T00:58:19.025Z,7.17
2018-12-26T00:59:19.483Z,7.19
2018-12-26T01:00:19.948Z,7.18
2018-12-26T01:01:20.412Z,7.16
2018-12-26T01:02:20.876Z,7.21
2018-12-26T01:03:21.342Z,7.19
2018-12-26T01:04:21.803Z,7.18
2018-12-26T01:05:22.267Z,7.22
2018-12-26T01:06:22.731Z,7.17
2018-12-26T01:07:23.196Z,7.22
2018-12-26T01:08:23.662Z,7.20
2018-12-26T01:09:24.124Z,7.23
2018-12-26T01:10:24.591Z,7.20
2018-12-26T01:11:25.053Z,7.21
2018-12-26T01:12:25.517Z,7.25
2018-12-26T01:13:25.979Z,7.25
2018-12-26T01:14:26.443Z,7.25
2018-12-26T01:15:26.909Z,7.24
2018-12-26T01:16:27.371Z,7.24
2018-12-26T01:17:27.836Z,7.24
2018-12-26T01:18:28.300Z,7.23
2018-12-26T01:19:28.763Z,7.26
2018-12-26T01:20:29.228Z,7.28
2018-12-26T01:21:29.691Z,7.26
2018-12-26T01:22:30.156Z,7.30
2018-12-26T01:23:30.621Z,7.28
2018-12-26T01:24:31.083Z,7.32
2018-12-26T01:25:31.550Z,7.27
2018-12-26T01:26:32.014Z,7.30
2018-12-26T01:27:32.479Z,7.33
2018-12-26T01:28:32.944Z,7.26
2018-12-26T01:29:33.409Z,7.28
2018-12-26T01:30:33.870Z,7.33
2018-12-26T01:31:34.335Z,7.33
2018-12-26T01:32:34.799Z,7.33
2018-12-26T01:33:35.261Z,7.33
2018-12-26T01:34:35.726Z,7.33
2018-12-26T01:35:36.189Z,7.34
2018-12-26T01:36:36.740Z,7.35
2018-12-26T01:37:37.120Z,7.34
2018-12-26T01:38:37.583Z,7.39
2018-12-26T01:39:38.048Z,7.42
2018-12-26T01:40:38.513Z,7.39
2018-12-26T01:41:38.977Z,7.40
2018-12-26T01:42:39.440Z,7.39
2018-12-26T01:43:39.904Z,7.38
2018-12-26T01:44:40.368Z,7.39
2018-12-26T01:45:40.833Z,7.44
2018-12-26T01:46:41.299Z,7.40
2018-12-26T01:47:41.761Z,7.36
2018-12-26T01:48:42.224Z,7.39
2018-12-26T01:49:42.690Z,7.37
2018-12-26T01:50:43.157Z,7.38
2018-12-26T01:51:43.620Z,7.40
2018-12-26T01:52:44.082Z,7.42
2018-12-26T01:53:44.546Z,7.39
2018-12-26T01:54:45.015Z,7.39
2018-12-26T01:55:45.475Z,7.39
2018-12-26T01:56:45.941Z,7.41
2018-12-26T01:57:46.402Z,7.43
2018-12-26T01:58:46.867Z,7.42
2018-12-26T01:59:47.335Z,7.42
2018-12-26T02:00:47.796Z,7.44
2018-12-26T02:01:48.263Z,7.38
2018-12-26T02:02:48.726Z,7.42
2018-12-26T02:03:49.191Z,7.44
2018-12-26T02:04:49.654Z,7.39
2018-12-26T02:05:50.121Z,7.41
2018-12-26T02:06:50.584Z,7.47
2018-12-26T02:07:51.050Z,7.46
2018-12-26T02:08:51.511Z,7.44
2018-12-26T02:09:51.975Z,7.40
2018-12-26T02:10:52.440Z,7.38
2018-12-26T02:11:52.904Z,7.43
2018-12-26T02:12:53.369Z,7.42
2018-12-26T02:13:53.833Z,7.40
2018-12-26T02:14:54.296Z,7.40
2018-12-26T02:15:54.761Z,7.41
2018-12-26T02:16:55.226Z,7.38
2018-12-26T02:17:55.688Z,7.39
2018-12-26T02:18:56.155Z,7.41
2018-12-26T02:19:56.619Z,7.40
2018-12-26T02:20:57.085Z,7.41
2018-12-26T02:21:57.547Z,7.43
2018-12-26T02:22:58.014Z,7.44
2018-12-26T02:23:58.476Z,7.39
2018-12-26T02:24:58.940Z,7.37
2018-12-26T02:25:59.404Z,7.43
2018-12-26T02:26:59.868Z,7.40
2018-12-26T02:28:00.333Z,7.38
2018-12-26T02:29:00.796Z,7.40
2018-12-26T02:30:01.266Z,7.35
2018-12-26T02:31:01.730Z,7.37
2018-12-26T02:32:02.192Z,7.39
2018-12-26T02:33:02.653Z,7.38
2018-12-26T02:34:03.118Z,7.38
2018-12-26T02:35:03.582Z,7.34
2018-12-26T02:36:04.048Z,7.36
2018-12-26T02:37:04.510Z,7.38
2018-12-26T02:38:05.056Z,7.34
2018-12-26T02:39:05.442Z,7.37
2018-12-26T02:40:05.910Z,7.39
2018-12-26T02:41:06.370Z,7.34
2018-12-26T02:42:06.841Z,7.31
2018-12-26T02:43:07.298Z,7.31
2018-12-26T02:44:07.797Z,7.32
2018-12-26T02:45:08.230Z,7.33
2018-12-26T02:46:08.691Z,7.30
2018-12-26T02:47:09.155Z,7.33
2018-12-26T02:48:09.618Z,7.32
2018-12-26T02:49:10.083Z,7.28
2018-12-26T02:50:10.547Z,7.31
2018-12-26T02:51:11.012Z,7.32
2018-12-26T02:52:11.479Z,7.31
2018-12-26T02:53:11.940Z,7.33
2018-12-26T02:54:12.403Z,7.27
2018-12-26T02:55:12.867Z,7.32
2018-12-26T02:56:13.333Z,7.32
2018-12-26T02:57:13.797Z,7.33
2018-12-26T02:58:14.261Z,7.27
2018-12-26T02:59:14.724Z,7.30
2018-12-26T03:00:15.189Z,7.27
2018-12-26T03:01:15.656Z,7.32
2018-12-26T03:02:16.117Z,7.29
2018-12-26T03:03:16.583Z,7.27
2018-12-26T03:04:17.046Z,7.28
2018-12-26T03:05:17.511Z,7.25
2018-12-26T03:06:17.975Z,7.27
2018-12-26T03:07:18.439Z,7.27
2018-12-26T03:08:18.902Z,7.29
2018-12-26T03:09:19.375Z,7.29
2018-12-26T03:10:19.831Z,7.31
2018-12-26T03:11:20.294Z,7.31
2018-12-26T03:12:20.759Z,7.27
2018-12-26T03:13:21.221Z,7.28
2018-12-26T03:14:21.689Z,7.28
2018-12-26T03:15:22.153Z,7.26
2018-12-26T03:16:22.617Z,7.27
2018-12-26T03:17:23.079Z,7.23
2018-12-26T03:18:23.549Z,7.27
2018-12-26T03:19:24.007Z,7.29
2018-12-26T03:20:24.474Z,7.29
2018-12-26T03:21:24.935Z,7.25
2018-12-26T03:22:25.403Z,7.32
2018-12-26T03:23:25.864Z,7.27
2018-12-26T03:24:26.329Z,7.31
2018-12-26T03:25:26.791Z,7.29
2018-12-26T03:26:27.256Z,7.28
2018-12-26T03:27:27.826Z,7.28
2018-12-26T03:28:28.188Z,7.25
2018-12-26T03:29:28.649Z,7.30
2018-12-26T03:30:29.119Z,7.27
2018-12-26T03:31:29.577Z,7.28
2018-12-26T03:32:30.042Z,7.28
2018-12-26T03:33:30.507Z,7.26
2018-12-26T03:34:30.972Z,7.26
2018-12-26T03:35:31.434Z,7.30
2018-12-26T03:36:31.897Z,7.29
2018-12-26T03:37:32.361Z,7.27
2018-12-26T03:38:32.877Z,7.27
2018-12-26T03:39:33.293Z,7.28
2018-12-26T03:40:33.755Z,7.26
2018-12-26T03:41:34.217Z,7.25
2018-12-26T03:42:34.727Z,7.28
2018-12-26T03:43:35.153Z,7.20
2018-12-26T03:44:35.612Z,7.27
2018-12-26T03:45:36.076Z,7.32
2018-12-26T03:46:36.538Z,7.23
2018-12-26T03:47:37.062Z,7.26
2018-12-26T03:48:37.466Z,7.22
2018-12-26T03:49:37.931Z,7.30
2018-12-26T03:50:38.397Z,7.28
2018-12-26T03:51:38.861Z,7.25
2018-12-26T03:52:39.326Z,7.28
2018-12-26T03:53:39.788Z,7.27
2018-12-26T03:54:40.255Z,7.30
2018-12-26T03:55:40.715Z,7.28
2018-12-26T03:56:41.182Z,7.28
2018-12-26T03:57:41.645Z,7.27
2018-12-26T03:58:42.109Z,7.28
2018-12-26T03:59:42.574Z,7.27
2018-12-26T04:00:43.038Z,7.27
2018-12-26T04:01:43.501Z,7.23
2018-12-26T04:02:43.970Z,7.29
2018-12-26T04:03:44.438Z,7.31
2018-12-26T04:04:44.897Z,7.26
2018-12-26T04:05:45.360Z,7.26
2018-12-26T04:06:45.822Z,7.23
2018-12-26T04:07:46.285Z,7.27
2018-12-26T04:08:46.751Z,7.22
2018-12-26T04:09:47.215Z,7.25
2018-12-26T04:10:47.681Z,7.27
2018-12-26T04:11:48.142Z,7.27
2018-12-26T04:12:48.606Z,7.31
2018-12-26T04:13:49.071Z,7.29
2018-12-26T04:14:49.537Z,7.31
2018-12-26T04:15:50.001Z,7.32
2018-12-26T04:16:50.463Z,7.26
2018-12-26T04:17:50.927Z,7.29
2018-12-26T04:18:51.394Z,7.28
2018-12-26T04:19:51.856Z,7.33
2018-12-26T04:20:52.320Z,7.29
2018-12-26T04:21:52.783Z,7.30
2018-12-26T04:22:53.247Z,7.30
2018-12-26T04:23:53.712Z,7.30
2018-12-26T04:24:54.179Z,7.31
2018-12-26T04:25:54.641Z,7.34
2018-12-26T04:26:55.112Z,7.34
2018-12-26T04:27:55.568Z,7.35
2018-12-26T04:28:56.037Z,7.35
2018-12-26T04:29:56.497Z,7.35
2018-12-26T04:30:56.964Z,7.40
2018-12-26T04:31:57.427Z,7.38
2018-12-26T04:32:57.908Z,7.38
2018-12-26T04:33:58.353Z,7.39
2018-12-26T04:34:58.818Z,7.37
2018-12-26T04:35:59.283Z,7.41
2018-12-26T04:36:59.747Z,7.42
2018-12-26T04:38:00.210Z,7.38
2018-12-26T04:39:00.726Z,7.39
2018-12-26T04:40:01.138Z,7.42
2018-12-26T04:41:01.604Z,7.42
2018-12-26T04:42:02.069Z,7.43
2018-12-26T04:43:02.530Z,7.46
2018-12-26T04:44:03.001Z,7.44
2018-12-26T04:45:03.463Z,7.42
2018-12-26T04:46:03.932Z,7.47
2018-12-26T04:47:04.388Z,7.48
2018-12-26T04:48:04.853Z,7.46
2018-12-26T04:49:05.323Z,7.49
2018-12-26T04:50:05.786Z,7.47
2018-12-26T04:51:06.246Z,7.47
2018-12-26T04:52:06.715Z,7.49
2018-12-26T04:53:07.175Z,7.47
2018-12-26T04:54:07.690Z,7.44
2018-12-26T04:55:08.183Z,7.46
2018-12-26T04:56:08.570Z,7.51
2018-12-26T04:57:09.036Z,7.49
2018-12-26T04:58:09.496Z,7.48
2018-12-26T04:59:09.962Z,7.51
2018-12-26T05:00:10.425Z,7.51
2018-12-26T05:01:10.893Z,7.50
2018-12-26T05:02:11.352Z,7.49
2018-12-26T05:03:11.821Z,7.52
2018-12-26T05:04:12.283Z,7.48
2018-12-26T05:05:12.757Z,7.49
2018-12-26T05:06:13.210Z,7.52
2018-12-26T05:07:13.675Z,7.54
2018-12-26T05:08:14.144Z,7.50
2018-12-26T05:09:14.655Z,7.51
2018-12-26T05:10:15.067Z,7.47
2018-12-26T05:11:15.534Z,7.43
2018-12-26T05:12:15.997Z,7.51
2018-12-26T05:13:16.462Z,7.51
2018-12-26T05:14:16.927Z,7.48
2018-12-26T05:15:17.390Z,7.52
2018-12-26T05:16:17.859Z,7.51
2018-12-26T05:17:18.321Z,7.47
2018-12-26T05:18:18.785Z,7.49
2018-12-26T05:19:19.247Z,7.50
2018-12-26T05:20:19.712Z,7.54
2018-12-26T05:21:20.177Z,7.52
2018-12-26T05:22:20.644Z,7.57
2018-12-26T05:23:21.105Z,7.57
2018-12-26T05:24:21.625Z,7.55
2018-12-26T05:25:22.036Z,7.54
2018-12-26T05:26:22.499Z,7.57
2018-12-26T05:27:22.976Z,7.52
2018-12-26T05:28:23.427Z,7.54
2018-12-26T05:29:23.891Z,7.54
2018-12-26T05:30:24.356Z,7.56
2018-12-26T05:31:24.822Z,7.54
2018-12-26T05:32:25.286Z,7.55
2018-12-26T05:33:25.749Z,7.53
2018-12-26T05:34:26.213Z,7.51
2018-12-26T05:35:26.679Z,7.51
2018-12-26T05:36:27.242Z,7.53
2018-12-26T05:37:27.609Z,7.54
2018-12-26T05:38:28.071Z,7.59
2018-12-26T05:39:28.589Z,7.52
2018-12-26T05:40:29.001Z,7.56
2018-12-26T05:41:29.468Z,7.53
2018-12-26T05:42:29.929Z,7.51
2018-12-26T05:43:30.397Z,7.56
2018-12-26T05:44:30.857Z,7.56
2018-12-26T05:45:31.325Z,7.54
2018-12-26T05:46:31.786Z,7.57
2018-12-26T05:47:32.251Z,7.54
2018-12-26T05:48:32.716Z,7.53
2018-12-26T05:49:33.280Z,7.55
2018-12-26T05:50:33.645Z,7.58
2018-12-26T05:51:34.112Z,7.59
2018-12-26T05:52:34.574Z,7.58
2018-12-26T05:53:35.040Z,7.58
2018-12-26T05:54:35.505Z,7.61
2018-12-26T05:55:36.515Z,7.57
2018-12-26T05:56:36.432Z,7.61
2018-12-26T05:57:42.823Z,7.56
2018-12-26T05:58:37.361Z,7.58
2018-12-26T05:59:37.824Z,7.60
2018-12-26T06:00:38.291Z,7.60
2018-12-26T06:01:38.755Z,7.58
2018-12-26T06:02:39.217Z,7.64
2018-12-26T06:03:39.683Z,7.63
2018-12-26T06:04:40.200Z,7.61
2018-12-26T06:05:40.612Z,7.65
2018-12-26T06:06:41.075Z,7.66
2018-12-26T06:07:41.541Z,7.61
2018-12-26T06:08:42.004Z,7.67
2018-12-26T06:09:42.471Z,7.66
2018-12-26T06:10:42.935Z,7.66
2018-12-26T06:11:43.401Z,7.67
2018-12-26T06:12:43.863Z,7.63
2018-12-26T06:13:44.327Z,7.61
2018-12-26T06:14:44.792Z,7.64
2018-12-26T06:15:45.257Z,7.62
2018-12-26T06:16:45.723Z,7.59
2018-12-26T06:17:46.193Z,7.61
2018-12-26T06:18:46.650Z,7.61
2018-12-26T06:19:47.113Z,7.63
2018-12-26T06:20:47.580Z,7.64
2018-12-26T06:21:48.046Z,7.63
2018-12-26T06:22:48.508Z,7.63
2018-12-26T06:23:48.972Z,7.59
2018-12-26T06:24:49.591Z,7.55
2018-12-26T06:25:49.901Z,7.58
2018-12-26T06:26:50.365Z,7.60
2018-12-26T06:27:51.505Z,7.62
2018-12-26T06:28:51.294Z,7.60
2018-12-26T06:29:51.760Z,7.62
2018-12-26T06:30:52.223Z,7.62
2018-12-26T06:31:52.690Z,7.60
2018-12-26T06:32:53.152Z,7.61
2018-12-26T06:33:53.618Z,7.60
2018-12-26T06:34:54.082Z,7.63
2018-12-26T06:35:54.545Z,7.60
2018-12-26T06:36:55.010Z,7.63
2018-12-26T06:37:55.479Z,7.64
2018-12-26T06:38:55.939Z,7.64
2018-12-26T06:39:56.455Z,7.62
2018-12-26T06:40:56.871Z,7.60
2018-12-26T06:41:57.335Z,7.61
2018-12-26T06:42:57.797Z,7.58
2018-12-26T06:43:58.261Z,7.60
2018-12-26T06:44:58.732Z,7.63
2018-12-26T06:45:59.192Z,7.64
2018-12-26T06:46:59.657Z,7.65
2018-12-26T06:48:00.119Z,7.64
2018-12-26T06:49:00.584Z,7.60
2018-12-26T06:50:01.049Z,7.65
2018-12-26T06:51:01.516Z,7.65
2018-12-26T06:52:01.977Z,7.62
2018-12-26T06:53:02.443Z,7.63
2018-12-26T06:54:02.907Z,7.61
2018-12-26T06:55:03.370Z,7.59
2018-12-26T06:56:03.836Z,7.60
2018-12-26T06:57:04.299Z,7.59
2018-12-26T06:58:04.765Z,7.62
2018-12-26T06:59:05.231Z,7.58
2018-12-26T07:00:05.743Z,7.56
2018-12-26T07:01:06.159Z,7.57
2018-12-26T07:02:06.628Z,7.58
2018-12-26T07:03:07.088Z,7.59
2018-12-26T07:04:07.553Z,7.63
2018-12-26T07:05:08.016Z,7.57
2018-12-26T07:06:08.479Z,7.58
2018-12-26T07:07:08.948Z,7.58
2018-12-26T07:08:09.408Z,7.62
2018-12-26T07:09:09.876Z,7.61
2018-12-26T07:10:10.337Z,7.54
2018-12-26T07:11:10.804Z,7.57
2018-12-26T07:12:11.267Z,7.49
2018-12-26T07:13:11.729Z,7.56
2018-12-26T07:14:12.197Z,7.51
2018-12-26T07:15:12.660Z,7.56
2018-12-26T07:16:14.461Z,7.57
2018-12-26T07:17:13.589Z,7.52
2018-12-26T07:18:14.052Z,7.51
2018-12-26T07:19:14.517Z,7.50
2018-12-26T07:20:14.981Z,7.53
2018-12-26T07:21:15.447Z,7.55
2018-12-26T07:22:15.909Z,7.49
2018-12-26T07:23:16.379Z,7.56
2018-12-26T07:24:16.839Z,7.50
2018-12-26T07:25:17.305Z,7.50
2018-12-26T07:26:17.770Z,7.54
2018-12-26T07:27:18.234Z,7.51
2018-12-26T07:28:18.696Z,7.48
2018-12-26T07:29:19.162Z,7.47
2018-12-26T07:30:19.624Z,7.48
2018-12-26T07:31:20.089Z,7.47
2018-12-26T07:32:20.553Z,7.53
2018-12-26T07:33:21.029Z,7.48
2018-12-26T07:34:21.482Z,7.46
2018-12-26T07:35:21.948Z,7.48
2018-12-26T07:36:22.411Z,7.52
2018-12-26T07:37:22.878Z,7.53
2018-12-26T07:38:23.341Z,7.52
2018-12-26T07:39:23.804Z,7.52
2018-12-26T07:40:24.271Z,7.55
2018-12-26T07:41:24.732Z,7.51
2018-12-26T07:42:25.199Z,7.52
2018-12-26T07:43:25.662Z,7.55
2018-12-26T07:44:26.125Z,7.55
2018-12-26T07:45:26.589Z,7.60
2018-12-26T07:46:27.055Z,7.53
2018-12-26T07:47:27.520Z,7.53
2018-12-26T07:48:29.035Z,7.54
2018-12-26T07:49:28.450Z,7.59
2018-12-26T07:50:28.912Z,7.61
2018-12-26T07:51:29.376Z,7.60
2018-12-26T07:52:29.842Z,7.57
2018-12-26T07:53:30.304Z,7.56
2018-12-26T07:54:30.769Z,7.59
2018-12-26T07:55:31.288Z,7.60
2018-12-26T07:56:31.697Z,7.62
2018-12-26T07:57:32.162Z,7.67
2018-12-26T07:58:32.628Z,7.62
2018-12-26T07:59:37.512Z,7.65
2018-12-26T08:00:33.555Z,7.64
2018-12-26T08:01:34.022Z,7.65
2018-12-26T08:02:34.485Z,7.66
2018-12-26T08:03:34.946Z,7.69
2018-12-26T08:04:35.415Z,7.68
2018-12-26T08:05:35.877Z,7.69
2018-12-26T08:06:36.342Z,7.70
2018-12-26T08:07:36.805Z,7.70
2018-12-26T08:08:37.271Z,7.71
2018-12-26T08:09:37.734Z,7.73
2018-12-26T08:10:38.198Z,7.71
2018-12-26T08:11:38.663Z,7.74
2018-12-26T08:12:39.126Z,7.69
2018-12-26T08:13:39.591Z,7.70
2018-12-26T08:14:40.057Z,7.71
2018-12-26T08:15:40.521Z,7.74
2018-12-26T08:16:40.985Z,7.73
2018-12-26T08:17:41.448Z,7.77
2018-12-26T08:18:41.913Z,7.79
2018-12-26T08:19:42.378Z,7.81
2018-12-26T08:20:42.846Z,7.78
2018-12-26T08:21:43.306Z,7.82
2018-12-26T08:22:43.772Z,7.82
2018-12-26T08:23:44.235Z,7.80
2018-12-26T08:24:44.698Z,7.82
2018-12-26T08:25:45.213Z,7.83
2018-12-26T08:26:45.628Z,7.84
2018-12-26T08:27:46.095Z,7.86
2018-12-26T08:28:46.560Z,7.88
2018-12-26T08:29:47.020Z,7.89
2018-12-26T08:30:47.486Z,7.92
2018-12-26T08:31:47.948Z,7.92
2018-12-26T08:32:48.414Z,7.96
2018-12-26T08:33:48.880Z,7.95
2018-12-26T08:34:49.344Z,7.98
2018-12-26T08:35:49.808Z,7.99
2018-12-26T08:36:50.272Z,7.96
2018-12-26T08:37:50.737Z,7.96
2018-12-26T08:38:51.205Z,7.99
2018-12-26T08:39:51.667Z,7.96
2018-12-26T08:40:52.129Z,7.95
2018-12-26T08:41:52.595Z,8.01
2018-12-26T08:42:53.059Z,7.99
2018-12-26T08:43:53.523Z,8.03
2018-12-26T08:44:53.989Z,8.01
2018-12-26T08:45:54.459Z,8.00
2018-12-26T08:46:54.916Z,8.07
2018-12-26T08:47:55.384Z,8.03
2018-12-26T08:48:55.845Z,8.04
2018-12-26T08:49:56.311Z,8.08
2018-12-26T08:50:56.776Z,8.09
2018-12-26T08:51:57.242Z,8.08
2018-12-26T08:52:57.704Z,8.11
2018-12-26T08:53:58.171Z,8.10
2018-12-26T08:54:58.635Z,8.13
2018-12-26T08:55:59.098Z,8.14
2018-12-26T08:56:59.568Z,8.13
2018-12-26T08:58:00.025Z,8.14
2018-12-26T08:59:00.493Z,8.15
2018-12-26T09:00:00.955Z,8.16
2018-12-26T09:01:01.419Z,8.17
2018-12-26T09:02:01.886Z,8.16
2018-12-26T09:03:02.349Z,8.18
2018-12-26T09:04:02.815Z,8.21
2018-12-26T09:05:03.279Z,8.21
2018-12-26T09:06:03.742Z,8.22
2018-12-26T09:07:04.208Z,8.24
2018-12-26T09:08:04.675Z,8.23
2018-12-26T09:09:05.135Z,8.23
2018-12-26T09:10:05.604Z,8.25
2018-12-26T09:11:06.118Z,8.27
2018-12-26T09:12:06.531Z,8.28
2018-12-26T09:13:06.999Z,8.28
2018-12-26T09:14:07.475Z,8.27
2018-12-26T09:15:07.924Z,8.31
2018-12-26T09:16:08.388Z,8.34
2018-12-26T09:17:08.855Z,8.31
2018-12-26T09:18:09.320Z,8.31
2018-12-26T09:19:09.782Z,8.34
2018-12-26T09:20:10.248Z,8.34
2018-12-26T09:21:10.712Z,8.36
2018-12-26T09:22:11.179Z,8.39
2018-12-26T09:23:11.641Z,8.35
2018-12-26T09:24:12.110Z,8.40
2018-12-26T09:25:12.571Z,8.41
2018-12-26T09:26:13.086Z,8.44
2018-12-26T09:27:13.501Z,8.46
2018-12-26T09:28:13.965Z,8.46
2018-12-26T09:29:14.428Z,8.51
2018-12-26T09:30:14.894Z,8.51
2018-12-26T09:31:15.361Z,8.51
2018-12-26T09:32:15.826Z,8.52
2018-12-26T09:33:16.302Z,8.54
2018-12-26T09:34:16.757Z,8.58
2018-12-26T09:35:17.219Z,8.58
2018-12-26T09:36:17.685Z,8.57
2018-12-26T09:37:18.149Z,8.60
2018-12-26T09:38:18.613Z,8.64
2018-12-26T09:39:19.081Z,8.65
2018-12-26T09:40:19.542Z,8.64
2018-12-26T09:41:20.058Z,8.69
2018-12-26T09:42:20.474Z,8.67
2018-12-26T09:43:20.939Z,8.69
2018-12-26T09:44:21.402Z,8.70
2018-12-26T09:45:21.868Z,8.72
2018-12-26T09:46:22.334Z,8.72
2018-12-26T09:47:22.798Z,8.72
2018-12-26T09:48:23.263Z,8.72
2018-12-26T09:49:23.728Z,8.74
2018-12-26T09:50:24.193Z,8.78
2018-12-26T09:51:24.659Z,8.79
2018-12-26T09:52:25.123Z,8.79
2018-12-26T09:53:25.589Z,8.82
2018-12-26T09:54:26.054Z,8.86
2018-12-26T09:55:26.525Z,8.86
2018-12-26T09:56:27.037Z,8.87
2018-12-26T09:57:27.450Z,8.89
2018-12-26T09:58:27.914Z,8.91
2018-12-26T09:59:28.383Z,8.92
2018-12-26T10:00:28.845Z,8.93
2018-12-26T10:01:29.314Z,8.95
2018-12-26T10:02:29.775Z,8.95
2018-12-26T10:03:30.242Z,8.95
2018-12-26T10:04:30.708Z,8.97
2018-12-26T10:05:31.171Z,8.96
2018-12-26T10:06:31.639Z,8.95
2018-12-26T10:07:32.104Z,8.97
2018-12-26T10:08:32.568Z,8.99
2018-12-26T10:09:33.032Z,9.00
2018-12-26T10:10:33.499Z,9.02
2018-12-26T10:11:33.968Z,9.02
2018-12-26T10:12:34.431Z,8.99
2018-12-26T10:13:34.898Z,9.01
2018-12-26T10:14:35.360Z,9.01
2018-12-26T10:15:35.826Z,9.05
2018-12-26T10:16:36.289Z,9.07
2018-12-26T10:17:36.758Z,9.09
2018-12-26T10:18:37.219Z,9.08
2018-12-26T10:19:37.687Z,9.13
2018-12-26T10:20:38.152Z,9.11
2018-12-26T10:21:38.617Z,9.17
2018-12-26T10:22:39.082Z,9.17
2018-12-26T10:23:39.548Z,9.18
2018-12-26T10:24:40.012Z,9.19
2018-12-26T10:25:40.479Z,9.19
2018-12-26T10:26:40.946Z,9.19
2018-12-26T10:27:41.409Z,9.21
2018-12-26T10:28:41.875Z,9.23
2018-12-26T10:29:42.343Z,9.23
2018-12-26T10:30:42.809Z,9.25
2018-12-26T10:31:43.325Z,9.24
2018-12-26T10:32:43.738Z,9.25
2018-12-26T10:33:44.206Z,9.22
2018-12-26T10:34:44.671Z,9.28
2018-12-26T10:35:45.135Z,9.24
2018-12-26T10:36:45.600Z,9.27
2018-12-26T10:37:46.066Z,9.28
2018-12-26T10:38:46.531Z,9.31
2018-12-26T10:39:47.000Z,9.32
2018-12-26T10:40:47.463Z,9.32
2018-12-26T10:41:47.982Z,9.33
2018-12-26T10:42:48.395Z,9.31
2018-12-26T10:43:48.861Z,9.35
2018-12-26T10:44:49.325Z,9.35
2018-12-26T10:45:49.796Z,9.39
2018-12-26T10:46:50.257Z,9.38
2018-12-26T10:47:50.726Z,9.40
2018-12-26T10:48:51.189Z,9.42
2018-12-26T10:49:51.652Z,9.41
2018-12-26T10:50:52.120Z,9.43
2018-12-26T10:51:52.588Z,9.45
2018-12-26T10:52:53.051Z,9.47
2018-12-26T10:53:53.516Z,9.50
2018-12-26T10:54:53.985Z,9.49
2018-12-26T10:55:54.450Z,9.52
2018-12-26T10:56:54.914Z,9.52
2018-12-26T10:57:55.379Z,9.54
2018-12-26T10:58:55.844Z,9.55
2018-12-26T10:59:56.313Z,9.56
2018-12-26T11:00:56.776Z,9.60
2018-12-26T11:01:57.245Z,9.57
2018-12-26T11:02:57.708Z,9.60
2018-12-26T11:03:58.178Z,9.63
2018-12-26T11:04:58.641Z,9.61
2018-12-26T11:05:59.108Z,9.64
2018-12-26T11:06:59.575Z,9.67
2018-12-26T11:08:00.039Z,9.67
2018-12-26T11:09:00.508Z,9.70
2018-12-26T11:10:00.971Z,9.68
2018-12-26T11:11:01.437Z,9.69
2018-12-26T11:12:01.904Z,9.74
2018-12-26T11:13:02.370Z,9.73
2018-12-26T11:14:02.837Z,9.75
2018-12-26T11:15:03.301Z,9.77
2018-12-26T11:16:03.771Z,9.77
2018-12-26T11:17:04.233Z,9.78
2018-12-26T11:18:04.700Z,9.76
2018-12-26T11:19:05.176Z,9.78
2018-12-26T11:20:05.633Z,9.77
2018-12-26T11:21:06.142Z,9.82
2018-12-26T11:22:06.565Z,9.84
2018-12-26T11:23:07.062Z,9.84
2018-12-26T11:24:07.497Z,9.85
2018-12-26T11:25:07.962Z,9.86
2018-12-26T11:26:08.429Z,9.87
2018-12-26T11:27:08.897Z,9.90
2018-12-26T11:28:09.361Z,9.89
2018-12-26T11:29:18.224Z,9.91
2018-12-26T11:30:10.293Z,9.92
2018-12-26T11:31:10.763Z,9.94
2018-12-26T11:32:11.226Z,9.95
2018-12-26T11:33:11.692Z,9.95
2018-12-26T11:34:12.159Z,9.99
2018-12-26T11:35:12.625Z,9.96
2018-12-26T11:36:13.092Z,10.03
2018-12-26T11:37:13.558Z,10.02
2018-12-26T11:38:14.027Z,10.05
2018-12-26T11:39:14.490Z,10.09
2018-12-26T11:40:14.994Z,10.06
2018-12-26T11:41:15.424Z,10.06
2018-12-26T11:42:15.939Z,10.10
2018-12-26T11:43:16.355Z,10.13
2018-12-26T11:44:16.826Z,10.15
2018-12-26T11:45:17.289Z,10.17
2018-12-26T11:46:17.754Z,10.20
2018-12-26T11:47:18.223Z,10.21
2018-12-26T11:48:18.690Z,10.22
2018-12-26T11:49:19.155Z,10.21
2018-12-26T11:50:19.622Z,10.23
2018-12-26T11:51:20.091Z,10.24
2018-12-26T11:52:20.555Z,10.26
2018-12-26T11:53:21.021Z,10.25
2018-12-26T11:54:21.490Z,10.30
2018-12-26T11:55:21.954Z,10.30
2018-12-26T11:56:22.423Z,10.31
2018-12-26T11:57:22.940Z,10.34
2018-12-26T11:58:23.356Z,10.33
2018-12-26T11:59:27.325Z,10.33
2018-12-26T12:00:24.289Z,10.32
2018-12-26T12:01:24.839Z,10.36
2018-12-26T12:02:25.221Z,10.36
2018-12-26T12:03:25.688Z,10.40
2018-12-26T12:04:26.156Z,10.40
2018-12-26T12:05:26.622Z,10.41
2018-12-26T12:06:27.089Z,10.45
2018-12-26T12:07:27.557Z,10.44
2018-12-26T12:08:28.024Z,10.44
2018-12-26T12:09:28.490Z,10.43
2018-12-26T12:10:28.955Z,10.40
2018-12-26T12:11:29.422Z,10.44
2018-12-26T12:12:29.941Z,10.45
2018-12-26T12:13:30.356Z,10.47
2018-12-26T12:14:30.824Z,10.46
2018-12-26T12:15:31.291Z,10.47
2018-12-26T12:16:31.759Z,10.47
2018-12-26T12:17:32.226Z,10.46
2018-12-26T12:18:32.694Z,10.45
2018-12-26T12:19:33.161Z,10.45
2018-12-26T12:20:33.625Z,10.47
2018-12-26T12:21:34.090Z,10.48
2018-12-26T12:22:34.558Z,10.47
2018-12-26T12:23:35.028Z,10.48
2018-12-26T12:24:35.495Z,10.44
2018-12-26T12:25:35.962Z,10.44
2018-12-26T12:26:36.428Z,10.49
2018-12-26T12:27:36.948Z,10.49
2018-12-26T12:28:37.362Z,10.50
2018-12-26T12:29:37.829Z,10.50
2018-12-26T12:30:38.294Z,10.50
2018-12-26T12:31:38.763Z,10.52
2018-12-26T12:32:39.229Z,10.51
2018-12-26T12:33:39.696Z,10.52
2018-12-26T12:34:40.163Z,10.52
2018-12-26T12:35:40.631Z,10.56
2018-12-26T12:36:41.100Z,10.55
2018-12-26T12:37:41.566Z,10.57
2018-12-26T12:38:42.033Z,10.59
2018-12-26T12:39:42.502Z,10.63
2018-12-26T12:40:42.969Z,10.62
2018-12-26T12:41:43.433Z,10.64
2018-12-26T12:42:43.915Z,10.65
2018-12-26T12:43:44.370Z,10.69
2018-12-26T12:44:44.836Z,10.69
2018-12-26T12:45:45.302Z,10.71
2018-12-26T12:46:45.769Z,10.72
2018-12-26T12:47:46.239Z,10.73
2018-12-26T12:48:46.716Z,10.72
2018-12-26T12:49:47.171Z,10.74
2018-12-26T12:50:47.640Z,10.75
2018-12-26T12:51:48.108Z,10.75
2018-12-26T12:52:48.575Z,10.77
2018-12-26T12:53:49.043Z,10.76
2018-12-26T12:54:49.509Z,10.79
2018-12-26T12:55:49.989Z,10.79
2018-12-26T12:56:50.445Z,10.79
2018-12-26T12:57:50.965Z,10.79
2018-12-26T12:58:51.378Z,10.80
2018-12-26T12:59:51.847Z,10.81
2018-12-26T13:00:52.312Z,10.79
2018-12-26T13:01:52.779Z,10.79
2018-12-26T13:03:00.388Z,10.85
2018-12-26T13:03:53.714Z,10.82
2018-12-26T13:04:54.185Z,10.87
2018-12-26T13:05:54.648Z,10.86
2018-12-26T13:06:55.123Z,10.83
2018-12-26T13:07:55.589Z,10.83
2018-12-26T13:08:56.054Z,10.84
2018-12-26T13:09:56.521Z,10.82
2018-12-26T13:10:57.071Z,10.82
2018-12-26T13:11:57.458Z,10.82
2018-12-26T13:12:58.076Z,10.83
2018-12-26T13:13:58.389Z,10.87
2018-12-26T13:14:58.858Z,10.87
2018-12-26T13:15:59.326Z,10.89
2018-12-26T13:16:59.794Z,10.86
2018-12-26T13:18:00.262Z,10.86
2018-12-26T13:19:00.729Z,10.87
2018-12-26T13:20:01.198Z,10.89
2018-12-26T13:21:01.662Z,10.88